createdAt,value
2022-10-30T00:01:26.176Z,5.03
2022-10-30T00:04:27.904Z,5.03
2022-10-30T00:07:29.863Z,4.53
2022-10-30T00:10:31.671Z,4.47
2022-10-30T00:13:33.440Z,4.80
2022-10-30T00:16:35.174Z,4.22
2022-10-30T00:19:42.976Z,4.63
2022-10-30T00:22:44.623Z,4.32
2022-10-30T00:25:46.500Z,4.72
2022-10-30T00:28:52.013Z,4.50
2022-10-30T00:31:54.932Z,4.00
2022-10-30T00:34:56.737Z,4.22
2022-10-30T00:38:00.627Z,4.05
2022-10-30T00:41:02.780Z,3.72
2022-10-30T00:44:43.389Z,3.88
2022-10-30T00:48:04.338Z,4.72
2022-10-30T00:51:11.132Z,4.35
2022-10-30T00:54:16.549Z,3.90
2022-10-30T00:57:19.241Z,4.05
2022-10-30T01:00:24.701Z,3.95
2022-10-30T01:03:28.202Z,3.90
2022-10-30T01:06:34.125Z,3.90
2022-10-30T01:09:36.597Z,4.20
2022-10-30T01:12:39.237Z,3.90
2022-10-30T01:15:58.749Z,4.07
2022-10-30T01:19:00.560Z,3.85
2022-10-30T01:22:37.320Z,3.90
2022-10-30T01:26:16.964Z,4.32
2022-10-30T01:29:49.762Z,3.65
2022-10-30T01:33:26.138Z,3.55
2022-10-30T01:36:57.562Z,3.92
2022-10-30T01:40:14.847Z,3.85
2022-10-30T01:43:16.723Z,3.53
2022-10-30T01:46:56.412Z,4.50
2022-10-30T01:50:07.936Z,3.53
2022-10-30T01:53:34.097Z,4.22
2022-10-30T01:56:44.052Z,4.63
2022-10-30T02:00:07.612Z,4.15
2022-10-30T02:03:22.802Z,3.72
2022-10-30T02:06:26.594Z,3.67
2022-10-30T02:09:29.345Z,3.58
2022-10-30T02:12:32.691Z,3.58
2022-10-30T02:15:35.344Z,3.50
2022-10-30T02:18:37.197Z,4.22
2022-10-30T02:21:39.416Z,3.85
2022-10-30T02:24:41.326Z,3.72
2022-10-30T02:27:43.062Z,4.13
2022-10-30T02:30:46.533Z,4.20
2022-10-30T02:33:48.990Z,4.22
2022-10-30T02:36:50.651Z,4.32
2022-10-30T02:39:55.261Z,4.00
2022-10-30T02:42:57.237Z,3.95
2022-10-30T02:45:59.758Z,3.63
2022-10-30T02:49:02.898Z,4.03
2022-10-30T02:52:07.201Z,3.63
2022-10-30T02:55:09.432Z,3.92
2022-10-30T02:58:13.084Z,4.22
2022-10-30T03:01:18.961Z,3.97
2022-10-30T03:04:21.429Z,3.78
2022-10-30T03:07:23.447Z,3.67
2022-10-30T03:10:25.524Z,4.40
2022-10-30T03:13:29.569Z,4.03
2022-10-30T03:16:33.500Z,3.83
2022-10-30T03:19:35.867Z,3.92
2022-10-30T03:22:37.701Z,4.15
2022-10-30T03:25:39.646Z,3.97
2022-10-30T03:28:41.576Z,4.18
2022-10-30T03:31:43.912Z,4.18
2022-10-30T03:34:50.082Z,4.15
2022-10-30T03:37:53.910Z,3.83
2022-10-30T03:40:56.070Z,3.63
2022-10-30T03:43:58.371Z,3.97
2022-10-30T03:47:00.558Z,4.00
2022-10-30T03:50:08.037Z,4.18
2022-10-30T03:53:10.185Z,4.30
2022-10-30T03:56:11.905Z,3.90
2022-10-30T03:59:20.657Z,4.38
2022-10-30T04:02:49.405Z,3.85
2022-10-30T04:05:53.479Z,3.85
2022-10-30T04:08:56.091Z,4.63
2022-10-30T04:11:59.271Z,4.60
2022-10-30T04:15:01.437Z,4.32
2022-10-30T04:18:04.110Z,4.03
2022-10-30T04:21:06.775Z,4.22
2022-10-30T04:24:10.849Z,4.25
2022-10-30T04:27:13.659Z,4.40
2022-10-30T04:30:15.893Z,4.60
2022-10-30T04:33:18.034Z,4.70
2022-10-30T04:36:22.012Z,4.22
2022-10-30T04:39:24.229Z,4.20
2022-10-30T04:42:35.001Z,4.30
2022-10-30T04:45:37.548Z,4.50
2022-10-30T04:48:41.120Z,4.30
2022-10-30T04:51:43.469Z,5.25
2022-10-30T04:54:45.352Z,4.20
2022-10-30T04:57:47.281Z,4.40
2022-10-30T05:00:49.267Z,4.07
2022-10-30T05:03:53.767Z,4.32
2022-10-30T05:06:56.815Z,4.43
2022-10-30T05:09:58.797Z,5.20
2022-10-30T05:13:01.192Z,4.70
2022-10-30T05:16:03.016Z,4.40
2022-10-30T05:19:07.315Z,4.35
2022-10-30T05:22:10.498Z,4.70
2022-10-30T05:25:12.452Z,4.50
2022-10-30T05:28:14.574Z,4.38
2022-10-30T05:31:21.096Z,4.15
2022-10-30T05:34:41.162Z,5.20
2022-10-30T05:37:44.211Z,4.55
2022-10-30T05:40:47.441Z,4.40
2022-10-30T05:43:49.930Z,4.22
2022-10-30T05:46:51.917Z,4.63
2022-10-30T05:50:00.635Z,4.68
2022-10-30T05:53:04.776Z,4.38
2022-10-30T05:56:08.266Z,4.28
2022-10-30T05:59:11.284Z,4.43
2022-10-30T06:02:13.235Z,4.50
2022-10-30T06:05:15.327Z,3.92
2022-10-30T06:08:20.255Z,4.75
2022-10-30T06:11:25.402Z,4.57
2022-10-30T06:14:29.981Z,4.63
2022-10-30T06:17:32.005Z,5.15
2022-10-30T06:20:54.296Z,4.20
2022-10-30T06:23:59.197Z,4.45
2022-10-30T06:27:12.758Z,3.92
2022-10-30T06:30:15.163Z,4.70
2022-10-30T06:33:16.880Z,4.75
2022-10-30T06:36:23.602Z,4.72
2022-10-30T06:39:25.245Z,4.55
2022-10-30T06:42:47.271Z,4.75
2022-10-30T06:46:05.120Z,4.43
2022-10-30T06:49:08.881Z,5.03
2022-10-30T06:52:11.106Z,4.60
2022-10-30T06:55:13.219Z,4.55
2022-10-30T06:58:21.146Z,4.68
2022-10-30T07:01:49.549Z,5.00
2022-10-30T07:04:58.890Z,4.50
2022-10-30T07:08:00.979Z,4.78
2022-10-30T07:11:02.974Z,4.88
2022-10-30T07:14:27.705Z,5.38
2022-10-30T07:17:35.257Z,5.05
2022-10-30T07:20:43.247Z,4.65
2022-10-30T07:23:45.106Z,4.38
2022-10-30T07:27:13.069Z,4.63
2022-10-30T07:30:33.742Z,4.82
2022-10-30T07:37:14.813Z,4.68
2022-10-30T07:40:37.318Z,4.68
2022-10-30T07:43:43.394Z,4.72
2022-10-30T07:47:04.159Z,6.88
2022-10-30T07:50:20.553Z,5.03
2022-10-30T07:53:22.348Z,4.63
2022-10-30T07:56:25.083Z,4.82
2022-10-30T07:59:27.124Z,4.88
2022-10-30T08:06:28.894Z,4.63
2022-10-30T08:09:31.906Z,5.10
2022-10-30T08:12:35.159Z,5.45
2022-10-30T08:15:39.499Z,5.07
2022-10-30T08:18:42.745Z,5.25
2022-10-30T08:21:45.821Z,4.57
2022-10-30T08:24:52.796Z,4.18
2022-10-30T08:28:07.645Z,4.90
2022-10-30T08:31:12.130Z,4.60
2022-10-30T08:34:34.286Z,5.15
2022-10-30T08:37:40.591Z,5.10
2022-10-30T08:40:42.555Z,4.35
2022-10-30T08:43:44.513Z,4.53
2022-10-30T08:46:46.425Z,4.45
2022-10-30T08:49:48.310Z,4.35
2022-10-30T08:52:54.758Z,4.15
2022-10-30T08:55:57.564Z,4.97
2022-10-30T08:59:21.166Z,5.70
2022-10-30T09:02:25.486Z,4.93
2022-10-30T09:09:06.383Z,4.43
2022-10-30T09:12:16.804Z,4.97
2022-10-30T09:15:20.699Z,4.40
2022-10-30T09:18:29.665Z,4.45
2022-10-30T09:21:32.380Z,5.15
2022-10-30T09:24:35.163Z,4.38
2022-10-30T09:27:43.218Z,5.00
2022-10-30T09:30:49.244Z,5.72
2022-10-30T09:33:52.715Z,4.82
2022-10-30T09:37:13.041Z,4.80
2022-10-30T09:40:31.601Z,4.60
2022-10-30T09:43:52.101Z,4.65
2022-10-30T09:46:53.953Z,4.57
2022-10-30T09:50:37.201Z,4.93
2022-10-30T09:54:01.884Z,4.43
2022-10-30T09:57:39.571Z,4.38
2022-10-30T10:01:08.978Z,4.68
2022-10-30T10:04:30.240Z,4.63
2022-10-30T10:08:15.461Z,4.53
2022-10-30T10:12:01.390Z,4.82
2022-10-30T10:18:26.699Z,4.38
2022-10-30T10:21:30.838Z,4.55
2022-10-30T10:24:42.491Z,4.60
2022-10-30T10:28:15.528Z,4.60
2022-10-30T10:31:45.821Z,4.00
2022-10-30T10:35:18.246Z,4.10
2022-10-30T10:38:44.677Z,4.22
2022-10-30T10:42:06.687Z,4.43
2022-10-30T10:45:41.406Z,4.28
2022-10-30T10:48:46.301Z,3.78
2022-10-30T10:52:08.961Z,4.53
2022-10-30T10:55:25.249Z,4.78
2022-10-30T10:58:51.649Z,4.38
2022-10-30T11:02:10.856Z,4.38
2022-10-30T11:05:30.494Z,4.55
2022-10-30T11:08:35.657Z,3.70
2022-10-30T11:11:37.441Z,4.43
2022-10-30T11:14:42.387Z,3.63
2022-10-30T11:18:03.862Z,4.30
2022-10-30T11:21:23.687Z,4.20
2022-10-30T11:24:28.597Z,4.10
2022-10-30T11:27:30.934Z,4.47
2022-10-30T11:30:33.347Z,4.40
2022-10-30T11:33:36.632Z,4.03
2022-10-30T11:36:38.563Z,3.92
2022-10-30T11:39:40.627Z,4.10
2022-10-30T11:42:47.258Z,3.80
2022-10-30T11:45:50.903Z,4.13
2022-10-30T11:48:56.482Z,3.92
2022-10-30T11:52:09.194Z,4.00
2022-10-30T11:55:35.929Z,4.43
2022-10-30T11:58:42.837Z,4.90
2022-10-30T12:02:19.739Z,4.32
2022-10-30T12:05:43.634Z,4.05
2022-10-30T12:09:09.576Z,3.85
2022-10-30T12:12:33.353Z,3.70
2022-10-30T12:15:37.584Z,3.55
2022-10-30T12:18:55.124Z,3.78
2022-10-30T12:22:06.333Z,3.70
2022-10-30T12:25:29.512Z,4.40
2022-10-30T12:28:34.938Z,4.15
2022-10-30T12:32:08.974Z,4.00
2022-10-30T12:35:23.365Z,4.10
2022-10-30T12:38:28.331Z,4.47
2022-10-30T12:42:04.777Z,3.90
2022-10-30T12:45:17.532Z,3.90
2022-10-30T12:48:34.115Z,4.38
2022-10-30T12:51:43.223Z,4.00
2022-10-30T12:54:58.790Z,4.18
2022-10-30T12:58:36.042Z,4.45
2022-10-30T13:01:59.215Z,4.70
2022-10-30T13:05:39.330Z,4.20
2022-10-30T13:09:18.735Z,4.18
2022-10-30T13:12:35.387Z,4.25
2022-10-30T13:15:44.597Z,4.03
2022-10-30T13:18:46.821Z,4.03
2022-10-30T13:22:13.904Z,4.55
2022-10-30T13:25:48.448Z,3.65
2022-10-30T13:29:08.095Z,4.20
2022-10-30T13:32:47.807Z,4.17
2022-10-30T13:35:59.545Z,4.35
2022-10-30T13:39:24.802Z,4.97
2022-10-30T13:42:51.266Z,4.40
2022-10-30T13:46:05.533Z,3.78
2022-10-30T13:49:26.237Z,3.63
2022-10-30T13:52:31.872Z,4.60
2022-10-30T13:55:35.791Z,4.55
2022-10-30T13:58:58.528Z,4.47
2022-10-30T14:02:16.806Z,4.07
2022-10-30T14:05:31.851Z,4.40
2022-10-30T14:08:40.000Z,4.28
2022-10-30T14:11:42.288Z,4.28
2022-10-30T14:14:48.318Z,4.07
2022-10-30T14:18:12.716Z,4.63
2022-10-30T14:21:53.801Z,4.82
2022-10-30T14:24:56.144Z,4.70
2022-10-30T14:27:58.680Z,5.28
2022-10-30T14:31:19.918Z,4.20
2022-10-30T14:34:41.844Z,4.50
2022-10-30T14:37:43.923Z,4.55
2022-10-30T14:41:12.803Z,4.95
2022-10-30T14:44:26.380Z,4.60
2022-10-30T14:48:21.859Z,4.53
2022-10-30T14:51:29.368Z,4.50
2022-10-30T14:54:41.921Z,4.72
2022-10-30T14:57:48.489Z,4.78
2022-10-30T15:00:53.851Z,4.70
2022-10-30T15:04:09.059Z,4.97
2022-10-30T15:07:24.225Z,5.68
2022-10-30T15:10:34.641Z,5.60
2022-10-30T15:16:40.974Z,4.95
2022-10-30T15:19:43.235Z,5.70
2022-10-30T15:22:47.867Z,5.47
2022-10-30T15:25:52.974Z,5.45
2022-10-30T15:28:54.982Z,5.57
2022-10-30T15:32:02.739Z,4.45
2022-10-30T15:35:13.641Z,5.20
2022-10-30T15:38:18.407Z,5.32
2022-10-30T15:41:21.148Z,4.93
2022-10-30T15:44:26.578Z,4.70
2022-10-30T15:47:29.711Z,5.22
2022-10-30T15:50:33.612Z,4.72
2022-10-30T15:53:46.509Z,5.32
2022-10-30T15:57:31.252Z,4.80
2022-10-30T16:00:27.831Z,11.65
2022-10-30T16:07:09.652Z,9.45
2022-10-30T16:10:18.045Z,7.60
2022-10-30T16:13:28.750Z,7.28
2022-10-30T16:16:35.938Z,7.05
2022-10-30T16:19:47.254Z,6.03
2022-10-30T16:22:49.460Z,6.28
2022-10-30T16:25:56.691Z,6.28
2022-10-30T16:29:14.563Z,6.18
2022-10-30T16:32:19.175Z,6.28
2022-10-30T16:35:24.789Z,6.13
2022-10-30T16:38:30.480Z,6.05
2022-10-30T16:41:33.246Z,6.20
2022-10-30T16:44:36.637Z,5.57
2022-10-30T16:47:51.767Z,5.85
2022-10-30T16:51:04.841Z,6.60
2022-10-30T16:54:08.273Z,5.30
2022-10-30T16:57:37.704Z,5.90
2022-10-30T17:00:41.834Z,6.35
2022-10-30T17:03:44.414Z,5.90
2022-10-30T17:06:46.358Z,6.32
2022-10-30T17:09:50.090Z,6.30
2022-10-30T17:13:33.922Z,6.18
2022-10-30T17:16:39.558Z,5.45
2022-10-30T17:19:50.223Z,5.40
2022-10-30T17:23:15.658Z,5.78
2022-10-30T17:26:20.765Z,5.32
2022-10-30T17:29:46.774Z,5.88
2022-10-30T17:32:54.330Z,5.57
2022-10-30T17:35:56.287Z,6.28
2022-10-30T17:39:00.517Z,5.72
2022-10-30T17:42:02.827Z,5.53
2022-10-30T17:45:10.982Z,5.35
2022-10-30T17:48:18.443Z,6.90
2022-10-30T17:51:20.400Z,6.85
2022-10-30T17:54:22.470Z,6.38
2022-10-30T17:57:26.993Z,6.15
2022-10-30T18:00:31.646Z,6.18
2022-10-30T18:03:33.925Z,6.20
2022-10-30T18:06:35.823Z,6.32
2022-10-30T18:09:39.272Z,6.50
2022-10-30T18:12:45.044Z,6.53
2022-10-30T18:16:02.752Z,5.60
2022-10-30T18:19:04.595Z,5.20
2022-10-30T18:22:06.643Z,5.15
2022-10-30T18:25:22.728Z,5.40
2022-10-30T18:28:27.633Z,4.35
2022-10-30T18:31:29.935Z,5.18
2022-10-30T18:34:32.117Z,5.47
2022-10-30T18:37:34.353Z,5.28
2022-10-30T18:40:36.688Z,5.47
2022-10-30T18:43:43.704Z,5.10
2022-10-30T18:46:49.337Z,5.03
2022-10-30T18:49:51.575Z,5.57
2022-10-30T18:52:54.561Z,4.97
2022-10-30T18:55:56.364Z,4.90
2022-10-30T18:59:01.956Z,4.53
2022-10-30T19:02:20.120Z,4.40
2022-10-30T19:05:52.629Z,5.50
2022-10-30T19:08:54.607Z,4.72
2022-10-30T19:11:56.420Z,4.47
2022-10-30T19:15:00.057Z,4.78
2022-10-30T19:18:02.989Z,4.28
2022-10-30T19:21:15.771Z,4.50
2022-10-30T19:24:17.975Z,4.30
2022-10-30T19:27:21.855Z,4.88
2022-10-30T19:30:24.331Z,4.78
2022-10-30T19:33:27.294Z,4.88
2022-10-30T19:36:34.224Z,4.75
2022-10-30T19:39:35.997Z,4.32
2022-10-30T19:42:40.348Z,4.72
2022-10-30T19:45:42.553Z,4.03
2022-10-30T19:48:57.345Z,3.78
2022-10-30T19:52:00.164Z,4.82
2022-10-30T19:55:02.992Z,4.38
2022-10-30T19:58:06.855Z,3.88
2022-10-30T20:01:11.389Z,4.18
2022-10-30T20:04:13.407Z,3.80
2022-10-30T20:07:15.865Z,4.10
2022-10-30T20:10:20.583Z,3.83
2022-10-30T20:13:23.804Z,4.10
2022-10-30T20:16:26.567Z,4.05
2022-10-30T20:19:31.124Z,3.88
2022-10-30T20:22:33.186Z,4.00
2022-10-30T20:25:35.691Z,3.50
2022-10-30T20:28:42.801Z,3.95
2022-10-30T20:31:44.740Z,4.30
2022-10-30T20:34:46.766Z,4.13
2022-10-30T20:38:01.050Z,4.13
2022-10-30T20:41:05.150Z,4.65
2022-10-30T20:44:08.937Z,4.10
2022-10-30T20:47:10.855Z,4.28
2022-10-30T20:50:13.514Z,3.92
2022-10-30T20:53:18.654Z,4.88
2022-10-30T20:56:20.712Z,4.15
2022-10-30T20:59:22.951Z,4.40
2022-10-30T21:02:28.352Z,4.65
2022-10-30T21:05:43.354Z,4.95
2022-10-30T21:08:46.047Z,4.55
2022-10-30T21:11:48.059Z,4.50
2022-10-30T21:14:50.289Z,5.57
2022-10-30T21:17:52.053Z,5.28
2022-10-30T21:20:54.009Z,4.85
2022-10-30T21:23:56.038Z,4.70
2022-10-30T21:26:58.232Z,5.28
2022-10-30T21:30:00.510Z,4.72
2022-10-30T21:33:03.046Z,5.10
2022-10-30T21:36:14.499Z,4.97
2022-10-30T21:39:16.539Z,4.72
2022-10-30T21:42:18.544Z,4.82
2022-10-30T21:45:20.347Z,4.50
2022-10-30T21:48:22.444Z,4.28
2022-10-30T21:51:27.642Z,4.22
2022-10-30T21:54:30.709Z,3.97
2022-10-30T21:57:32.448Z,4.18
2022-10-30T22:00:34.222Z,4.28
2022-10-30T22:03:36.555Z,4.05
2022-10-30T22:06:42.866Z,3.92
2022-10-30T22:09:45.312Z,4.20
2022-10-30T22:12:47.171Z,4.60
2022-10-30T22:15:55.298Z,4.15
2022-10-30T22:19:00.512Z,3.90
2022-10-30T22:22:02.675Z,4.00
2022-10-30T22:25:04.634Z,4.80
2022-10-30T22:28:06.529Z,4.28
2022-10-30T22:31:17.819Z,4.32
2022-10-30T22:34:19.685Z,4.25
2022-10-30T22:37:24.951Z,3.97
2022-10-30T22:40:29.005Z,4.47
2022-10-30T22:43:34.203Z,4.13
2022-10-30T22:46:37.097Z,4.78
2022-10-30T22:49:39.348Z,5.00
2022-10-30T22:52:41.287Z,5.43
2022-10-30T22:55:43.122Z,5.97
2022-10-30T22:58:46.848Z,5.13
2022-10-30T23:01:48.818Z,5.15
2022-10-30T23:04:50.713Z,4.82
2022-10-30T23:07:52.785Z,4.55
2022-10-30T23:10:55.616Z,4.78
2022-10-30T23:13:57.937Z,5.03
2022-10-30T23:17:00.150Z,4.63
2022-10-30T23:20:02.060Z,5.10
2022-10-30T23:23:04.925Z,5.28
2022-10-30T23:26:18.322Z,5.22
2022-10-30T23:29:20.567Z,5.75
2022-10-30T23:32:22.565Z,5.18
2022-10-30T23:35:24.312Z,4.75
2022-10-30T23:38:26.193Z,5.53
2022-10-30T23:41:34.564Z,5.10
2022-10-30T23:44:39.233Z,5.35
2022-10-30T23:47:42.733Z,5.20
2022-10-30T23:50:44.819Z,5.40
2022-10-30T23:53:46.930Z,5.50
2022-10-30T23:56:49.069Z,4.90
2022-10-30T23:59:50.759Z,5.53
